Terminal Aerodrome Forecast
Issued by NWS Wakefield, VA

Home | Current Version | Previous Version | Text Only | Print | Product List | Glossary On
Versions: 1 2 3 4 5 6 7 8 9 10 11 12 13 14 15 16 17 18 19 20 21 22 23 24 25
000
FTUS41 KAKQ 191956 AAA
TAFRIC
TAF AMD
KRIC 191956Z 1920/2018 17003KT 1 1/2SM BR OVC005
      TEMPO 1920/1922 4SM BR OVC005
     FM200100 VRB03KT 3SM -DZ BR OVC005
     FM200400 20004KT 3/4SM -DZ BR OVC004
     FM201300 21004KT P6SM BKN006
     FM201500 21008KT P6SM BKN025=

USA.gov is the U.S. government's official web portal to all federal, state and local government web resources and services.